Time;durP1;ratioP1;P1;durP2;ratioP2;P2;SDS_P1;SDS_P2;PMS_P1;PMS_P2;Temp;Humidity;BMP_temperature;BMP_pressure;BME280_temperature;BME280_humidity;BME280_pressure;Samples;Min_cycle;Max_cycle;Signal;HPM_P1;HPM_P2
2023/09/29 00:00:32;;;;;;;;;;;;;;;20.12;52.09;101513.84;5018267;28;109553;-67
2023/09/29 00:02:59;;;;;;;;;;;;;;;20.13;51.96;101515.56;5025952;27;108892;-66
2023/09/29 00:05:27;;;;;;;;;;;;;;;20.13;51.98;101516.41;5011651;28;123252;-67
2023/09/29 00:07:54;;;;;;;;;;;;;;;20.12;52.05;101508.47;5026053;27;124089;-67
2023/09/29 00:10:21;;;;;;;;;;;;;;;20.13;52.00;101515.56;5023784;28;109278;-67
2023/09/29 00:12:49;;;;;;;;;;;;;;;20.12;52.02;101513.84;5023708;27;108501;-67
2023/09/29 00:15:18;;;;;;;;;;;;;;;20.13;52.05;101510.16;5008145;28;123212;-67
2023/09/29 00:17:45;;;;;;;;;;;;;;;20.11;52.12;101506.75;5028557;28;124186;-67
2023/09/29 00:20:23;;;;;;;;;;;;;;;20.11;52.10;101507.59;5020835;27;108358;-67
2023/09/29 00:22:52;;;;;;;;;;;;;;;20.11;52.22;101506.75;5025800;28;108289;-67
2023/09/29 00:25:19;;;;;;;;;;;;;;;20.11;52.27;101506.75;5025512;28;124644;-67
2023/09/29 00:27:46;;;;;;;;;;;;;;;20.12;52.22;101497.72;5028531;27;124211;-66
2023/09/29 00:30:14;;;;;;;;;;;;;;;20.13;52.34;101499.41;5014663;28;109325;-66
2023/09/29 00:32:48;;;;;;;;;;;;;;;20.15;52.28;101508.22;5030146;27;110034;-67
2023/09/29 00:35:27;;;;;;;;;;;;;;;20.16;52.29;101504.56;5015782;28;123260;-67
2023/09/29 00:37:56;;;;;;;;;;;;;;;20.16;52.34;101504.56;5009889;28;123715;-67
2023/09/29 00:40:23;;;;;;;;;;;;;;;20.19;52.32;101509.69;5012331;28;108047;-68
2023/09/29 00:42:50;;;;;;;;;;;;;;;20.19;52.39;101501.63;5009240;28;107288;-67
2023/09/29 00:45:25;;;;;;;;;;;;;;;20.22;52.38;101487.97;5021644;28;124583;-66
2023/09/29 00:47:57;;;;;;;;;;;;;;;20.22;52.44;101493.34;5002749;28;123218;-66
2023/09/29 00:50:28;;;;;;;;;;;;;;;20.23;52.42;101492.38;5017608;28;109652;-66
2023/09/29 00:52:58;;;;;;;;;;;;;;;20.26;52.36;101484.06;5032585;27;108979;-66
2023/09/29 00:55:29;;;;;;;;;;;;;;;20.28;52.40;101487.50;5021374;27;124380;-66
2023/09/29 00:57:58;;;;;;;;;;;;;;;20.29;52.49;101483.84;5012131;28;124960;-66
2023/09/29 01:02:56;;;;;;;;;;;;;;;20.33;52.47;101484.47;5021832;28;107553;-66
2023/09/29 01:05:23;;;;;;;;;;;;;;;20.36;52.55;101485.09;5027198;27;125186;-66
2023/09/29 01:07:51;;;;;;;;;;;;;;;20.38;52.46;101472.38;5021594;27;123065;-66
2023/09/29 01:10:18;;;;;;;;;;;;;;;20.41;52.50;101466.75;5022737;27;109800;-66
2023/09/29 01:12:45;;;;;;;;;;;;;;;20.45;52.54;101478.13;5010158;28;107561;-66
2023/09/29 01:15:15;;;;;;;;;;;;;;;20.48;52.54;101479.75;5031932;28;124312;-66
2023/09/29 01:17:43;;;;;;;;;;;;;;;20.50;52.54;101475.09;5018811;28;123065;-66
2023/09/29 01:20:27;;;;;;;;;;;;;;;20.54;52.58;101473.88;5017198;28;109599;-66
2023/09/29 01:22:55;;;;;;;;;;;;;;;20.58;52.67;101478.06;5026330;27;109940;-66
2023/09/29 01:25:23;;;;;;;;;;;;;;;20.62;52.59;101476.88;5035648;27;124544;-66
2023/09/29 01:27:53;;;;;;;;;;;;;;;20.65;52.50;101476.63;5033009;27;124500;-66
2023/09/29 01:30:20;;;;;;;;;;;;;;;20.70;52.53;101477.16;5027822;27;109516;-66
2023/09/29 01:32:48;;;;;;;;;;;;;;;20.72;52.57;101468.94;5014340;27;108689;-66
2023/09/29 01:35:16;;;;;;;;;;;;;;;20.74;52.56;101464.31;5039278;27;124424;-66
2023/09/29 01:37:44;;;;;;;;;;;;;;;20.76;52.55;101470.44;5042142;27;124207;-66
2023/09/29 01:40:12;;;;;;;;;;;;;;;20.79;52.44;101467.47;5001526;28;109389;-66
2023/09/29 01:42:40;;;;;;;;;;;;;;;20.80;52.50;101461.97;5031554;27;107729;-66
2023/09/29 01:45:13;;;;;;;;;;;;;;;20.82;52.55;101447.56;5026676;28;124148;-66
2023/09/29 01:47:43;;;;;;;;;;;;;;;20.83;52.50;101443.88;5028491;27;123212;-66
2023/09/29 01:50:14;;;;;;;;;;;;;;;20.84;52.54;101432.13;5029719;28;109481;-66
2023/09/29 01:52:42;;;;;;;;;;;;;;;20.85;52.55;101431.13;5014391;28;108081;-66
2023/09/29 01:55:10;;;;;;;;;;;;;;;20.85;52.48;101425.75;5028662;27;123222;-66
2023/09/29 01:57:38;;;;;;;;;;;;;;;20.83;52.54;101422.31;5009074;28;124703;-66
2023/09/29 02:00:07;;;;;;;;;;;;;;;20.84;52.66;101424.06;5016389;27;108612;-66
2023/09/29 02:02:38;;;;;;;;;;;;;;;20.85;52.60;101426.63;5036950;28;109448;-66
2023/09/29 02:05:07;;;;;;;;;;;;;;;20.86;52.71;101427.47;5034712;27;124168;-66
2023/09/29 02:07:35;;;;;;;;;;;;;;;20.87;52.79;101408.50;5034057;27;123352;-66
2023/09/29 02:10:03;;;;;;;;;;;;;;;20.91;52.62;101406.44;5016998;28;109335;-67
2023/09/29 02:12:31;;;;;;;;;;;;;;;20.92;52.50;101410.81;5032195;27;109508;-66
2023/09/29 02:14:58;;;;;;;;;;;;;;;20.93;52.64;101412.56;5026193;27;123269;-67
2023/09/29 02:17:26;;;;;;;;;;;;;;;20.96;52.69;101401.50;5016970;28;122968;-67
2023/09/29 02:19:53;;;;;;;;;;;;;;;20.98;52.72;101399.56;5010591;28;108952;-67
2023/09/29 02:22:20;;;;;;;;;;;;;;;20.98;52.45;101405.81;5003526;28;108710;-67
2023/09/29 02:24:48;;;;;;;;;;;;;;;21.00;52.59;101408.38;5031739;27;125308;-67
2023/09/29 02:27:16;;;;;;;;;;;;;;;21.01;52.71;101399.31;5024619;27;124037;-67
2023/09/29 02:29:43;;;;;;;;;;;;;;;21.00;52.72;101398.47;5025171;27;109833;-67
2023/09/29 02:32:10;;;;;;;;;;;;;;;21.03;52.75;101389.28;5018391;27;107707;-66
2023/09/29 02:34:37;;;;;;;;;;;;;;;21.04;52.65;101393.69;5007417;28;123427;-66
2023/09/29 02:37:07;;;;;;;;;;;;;;;21.05;52.66;101390.00;5037661;27;123364;-66
2023/09/29 02:39:34;;;;;;;;;;;;;;;21.04;52.75;101388.31;5028399;27;109584;-66
2023/09/29 02:42:01;;;;;;;;;;;;;;;21.05;52.56;101387.31;5029047;27;109831;-66
2023/09/29 02:44:33;;;;;;;;;;;;;;;21.07;52.81;101382.66;5018607;28;125334;-66
2023/09/29 02:47:00;;;;;;;;;;;;;;;21.08;52.77;101389.78;5004874;28;122757;-66
2023/09/29 02:49:30;;;;;;;;;;;;;;;21.10;52.75;101387.81;5010268;27;108433;-66
2023/09/29 02:51:57;;;;;;;;;;;;;;;21.13;52.69;101387.53;5007403;28;108521;-66
2023/09/29 02:54:25;;;;;;;;;;;;;;;21.13;52.65;101387.53;5023259;28;124666;-66
2023/09/29 02:56:52;;;;;;;;;;;;;;;21.13;52.61;101387.53;5021990;28;123752;-66
2023/09/29 02:59:20;;;;;;;;;;;;;;;21.16;52.65;101386.44;5028137;27;110786;-66
2023/09/29 03:01:49;;;;;;;;;;;;;;;21.19;52.69;101387.06;5031750;28;109800;-66
2023/09/29 03:04:16;;;;;;;;;;;;;;;21.21;52.74;101384.25;5029704;27;124409;-66
2023/09/29 03:06:44;;;;;;;;;;;;;;;21.23;52.75;101386.78;5031803;27;123675;-66
2023/09/29 03:09:13;;;;;;;;;;;;;;;21.27;52.75;101377.50;5025530;28;109515;-66
2023/09/29 03:11:40;;;;;;;;;;;;;;;21.28;52.71;101369.25;5033200;27;109123;-66
2023/09/29 03:14:08;;;;;;;;;;;;;;;21.29;52.78;101359.38;5008687;28;124256;-66
2023/09/29 03:16:35;;;;;;;;;;;;;;;21.30;52.64;101355.69;5022535;27;123987;-67
2023/09/29 03:19:03;;;;;;;;;;;;;;;21.30;52.60;101363.75;5030173;27;109974;-66
2023/09/29 03:21:30;;;;;;;;;;;;;;;21.30;52.79;101361.91;5019725;27;107684;-66
2023/09/29 03:23:57;;;;;;;;;;;;;;;21.32;52.62;101359.97;5021504;27;125212;-67
2023/09/29 03:26:25;;;;;;;;;;;;;;;21.32;52.65;101356.41;5030906;27;125077;-67
2023/09/29 03:28:55;;;;;;;;;;;;;;;21.33;52.76;101355.44;5021315;27;109386;-67
2023/09/29 03:31:23;;;;;;;;;;;;;;;21.32;52.69;101353.72;5001890;28;109280;-67
2023/09/29 03:33:52;;;;;;;;;;;;;;;21.34;52.69;101357.13;5030733;27;124366;-67
2023/09/29 03:36:20;;;;;;;;;;;;;;;21.34;52.73;101352.63;5030540;27;123905;-67
2023/09/29 03:38:47;;;;;;;;;;;;;;;21.36;52.69;101355.16;5033223;27;109324;-67
2023/09/29 03:41:14;;;;;;;;;;;;;;;21.36;52.81;101349.78;5032385;27;108224;-67
2023/09/29 03:43:41;;;;;;;;;;;;;;;21.36;52.76;101341.69;5025260;27;124917;-67
2023/09/29 03:46:21;;;;;;;;;;;;;;;21.36;52.73;101333.59;5034086;27;124307;-67
2023/09/29 03:48:48;;;;;;;;;;;;;;;21.37;52.74;101329.94;5020367;28;110278;-67
2023/09/29 03:51:25;;;;;;;;;;;;;;;21.37;52.84;101340.72;5004377;28;109771;-67
2023/09/29 03:53:52;;;;;;;;;;;;;;;21.36;52.89;101333.59;5031073;27;124357;-67
2023/09/29 03:56:23;;;;;;;;;;;;;;;21.36;52.85;101328.22;5033619;27;124173;-66
2023/09/29 03:58:50;;;;;;;;;;;;;;;21.37;52.86;101308.38;5034086;27;109568;-67
2023/09/29 04:01:17;;;;;;;;;;;;;;;21.38;52.84;101304.72;5030452;27;109255;-67
2023/09/29 04:03:45;;;;;;;;;;;;;;;21.38;52.83;101304.72;5024109;28;124750;-67
2023/09/29 04:06:12;;;;;;;;;;;;;;;21.37;52.92;101308.38;5031144;27;124043;-67
2023/09/29 04:08:39;;;;;;;;;;;;;;;21.38;52.84;101310.09;5031668;28;109618;-66
2023/09/29 04:11:07;;;;;;;;;;;;;;;21.40;52.97;101308.13;5032020;27;107996;-66
2023/09/29 04:13:34;;;;;;;;;;;;;;;21.40;52.88;101308.13;5028864;28;124110;-66
2023/09/29 04:16:08;;;;;;;;;;;;;;;21.39;52.93;101295.63;5028164;27;125446;-66
2023/09/29 04:18:35;;;;;;;;;;;;;;;21.40;52.92;101297.34;5021755;27;109598;-67
2023/09/29 04:21:02;;;;;;;;;;;;;;;21.39;52.92;101295.63;5032250;27;108650;-67
2023/09/29 04:23:30;;;;;;;;;;;;;;;21.40;53.00;101294.66;5027809;28;125255;-66
2023/09/29 04:25:57;;;;;;;;;;;;;;;21.39;53.00;101301.03;5025944;27;124957;-67
2023/09/29 04:28:24;;;;;;;;;;;;;;;21.39;53.02;101296.47;5024341;27;109336;-65
2023/09/29 04:30:51;;;;;;;;;;;;;;;21.41;53.08;101304.44;5028143;27;109638;-66
2023/09/29 04:33:18;;;;;;;;;;;;;;;21.41;53.11;101304.44;5022781;27;124471;-66
2023/09/29 04:35:46;;;;;;;;;;;;;;;21.42;52.99;101300.78;5029538;28;124197;-66
2023/09/29 04:38:13;;;;;;;;;;;;;;;21.43;53.04;101288.16;5026681;27;110203;-66
2023/09/29 04:40:40;;;;;;;;;;;;;;;21.44;52.99;101287.19;5032483;27;110022;-66
2023/09/29 04:43:07;;;;;;;;;;;;;;;21.45;53.06;101289.75;5029497;27;124405;-65
2023/09/29 04:45:34;;;;;;;;;;;;;;;21.45;53.17;101287.06;5030480;27;124029;-65
2023/09/29 04:48:01;;;;;;;;;;;;;;;21.46;53.10;101280.69;5023981;28;109932;-65
2023/09/29 04:50:29;;;;;;;;;;;;;;;21.48;53.12;101286.81;5026500;27;108640;-65
2023/09/29 04:52:56;;;;;;;;;;;;;;;21.49;53.24;101285.84;5023114;28;123928;-66
2023/09/29 04:55:24;;;;;;;;;;;;;;;21.50;53.17;101276.75;5031420;27;123947;-66
2023/09/29 04:57:54;;;;;;;;;;;;;;;21.50;53.21;101276.75;5025408;27;109743;-65
2023/09/29 05:00:21;;;;;;;;;;;;;;;21.51;53.20;101275.78;5010454;28;109143;-66
2023/09/29 05:02:48;;;;;;;;;;;;;;;21.52;53.27;101274.78;5011828;27;123879;-66
2023/09/29 05:05:15;;;;;;;;;;;;;;;21.51;53.13;101262.31;5031991;27;124743;-65
2023/09/29 05:07:44;;;;;;;;;;;;;;;21.53;53.27;101271.13;5032095;27;109701;-66
2023/09/29 05:10:14;;;;;;;;;;;;;;;21.54;53.31;101267.41;5040592;27;108773;-66
2023/09/29 05:12:43;;;;;;;;;;;;;;;21.56;53.31;101270.84;5023098;27;124285;-66
2023/09/29 05:15:10;;;;;;;;;;;;;;;21.56;53.24;101265.44;5030698;27;124343;-66
2023/09/29 05:17:37;;;;;;;;;;;;;;;21.57;53.26;101256.38;5029952;27;114668;-66
2023/09/29 05:20:17;;;;;;;;;;;;;;;21.60;53.40;101265.19;5024270;27;113787;-66
2023/09/29 05:22:45;;;;;;;;;;;;;;;21.61;53.31;101261.53;5032686;27;124914;-66
2023/09/29 05:25:12;;;;;;;;;;;;;;;21.62;53.42;101263.22;5022847;27;124177;-66
2023/09/29 05:27:39;;;;;;;;;;;;;;;21.62;53.32;101263.22;5031437;27;115334;-66
2023/09/29 05:30:06;;;;;;;;;;;;;;;21.63;53.42;101264.94;5030439;27;115088;-66
2023/09/29 05:32:33;;;;;;;;;;;;;;;21.65;53.66;101268.38;5030722;27;126190;-66
2023/09/29 05:35:01;;;;;;;;;;;;;;;21.66;53.49;101259.28;5016534;27;122625;-66
2023/09/29 05:37:28;;;;;;;;;;;;;;;21.66;53.39;101248.50;5030446;27;114334;-66
2023/09/29 05:39:55;;;;;;;;;;;;;;;21.67;53.44;101255.59;5025653;27;113652;-66
2023/09/29 05:42:22;;;;;;;;;;;;;;;21.68;53.48;101257.28;5013240;28;123667;-66
2023/09/29 05:45:07;;;;;;;;;;;;;;;21.69;53.48;101259.03;5026892;27;123688;-66
2023/09/29 05:47:34;;;;;;;;;;;;;;;21.69;53.41;101249.09;5023828;27;114818;-66
2023/09/29 05:50:01;;;;;;;;;;;;;;;21.70;53.49;101244.53;5029664;27;113663;-66
2023/09/29 05:52:44;;;;;;;;;;;;;;;21.72;53.52;101254.22;5031999;27;125539;-66
2023/09/29 05:55:26;;;;;;;;;;;;;;;21.76;53.40;101262.91;5031280;27;124208;-66
2023/09/29 05:57:53;;;;;;;;;;;;;;;21.78;53.50;101258.22;5028521;27;114593;-65
2023/09/29 06:00:20;;;;;;;;;;;;;;;21.79;53.62;101249.13;5030945;28;113831;-65
2023/09/29 06:02:47;;;;;;;;;;;;;;;21.81;53.49;101244.47;5021364;27;123287;-65
2023/09/29 06:05:14;;;;;;;;;;;;;;;21.85;53.59;101243.25;5011808;28;123201;-65
2023/09/29 06:07:41;;;;;;;;;;;;;;;21.88;53.71;101242.94;5045545;27;114235;-64
2023/09/29 06:10:09;;;;;;;;;;;;;;;21.92;53.59;101254.34;5013324;28;113256;-65
2023/09/29 06:12:38;;;;;;;;;;;;;;;21.95;53.58;101249.53;5029851;27;124158;-65
2023/09/29 06:15:11;;;;;;;;;;;;;;;21.99;53.68;101255.50;5008099;28;124647;-64
2023/09/29 06:17:43;;;;;;;;;;;;;;;22.03;53.65;101248.00;5025663;27;115539;-65
2023/09/29 06:20:12;;;;;;;;;;;;;;;22.05;53.68;101232.53;5012266;27;114374;-65
2023/09/29 06:22:42;;;;;;;;;;;;;;;22.06;53.59;101251.31;5028514;27;124256;-65
2023/09/29 06:25:09;;;;;;;;;;;;;;;22.09;53.67;101256.41;5022672;28;124958;-65
2023/09/29 06:27:36;;;;;;;;;;;;;;;22.13;53.80;101257.00;5027242;28;115187;-65
2023/09/29 06:30:04;;;;;;;;;;;;;;;22.17;53.76;101242.28;5012445;28;112620;-64
2023/09/29 06:32:31;;;;;;;;;;;;;;;22.22;53.74;101245.41;5029154;27;124442;-64
2023/09/29 06:34:58;;;;;;;;;;;;;;;22.26;53.74;101246.88;5013993;28;123064;-64
2023/09/29 06:37:25;;;;;;;;;;;;;;;22.31;53.75;101250.03;5023336;27;114466;-64
2023/09/29 06:39:52;;;;;;;;;;;;;;;22.37;53.83;101254.03;4998663;28;112440;-64
2023/09/29 06:42:20;;;;;;;;;;;;;;;22.42;53.90;101259.03;5002774;28;123576;-66
2023/09/29 06:44:47;;;;;;;;;;;;;;;22.47;53.87;101254.06;5015093;27;123786;-66
2023/09/29 06:47:14;;;;;;;;;;;;;;;22.52;53.71;101246.41;5024638;28;114839;-66
2023/09/29 06:49:41;;;;;;;;;;;;;;;22.59;53.93;101261.06;5023127;28;113534;-66
2023/09/29 06:52:08;;;;;;;;;;;;;;;22.63;53.80;101259.81;5027029;28;124266;-66
2023/09/29 06:54:35;;;;;;;;;;;;;;;22.68;53.78;101265.66;5021238;28;124323;-66
2023/09/29 06:57:02;;;;;;;;;;;;;;;22.73;53.87;101249.91;5023764;28;114998;-66
2023/09/29 06:59:29;;;;;;;;;;;;;;;22.78;53.76;101251.31;5027397;27;113966;-65
2023/09/29 07:01:56;;;;;;;;;;;;;;;22.80;53.72;101249.34;5026615;28;124803;-66
2023/09/29 07:04:23;;;;;;;;;;;;;;;22.83;53.67;101255.31;5023296;28;124475;-66
2023/09/29 07:06:51;;;;;;;;;;;;;;;22.87;53.75;101264.00;5023538;28;115269;-66
2023/09/29 07:09:18;;;;;;;;;;;;;;;22.91;53.63;101260.03;5030133;27;115460;-66
2023/09/29 07:11:45;;;;;;;;;;;;;;;22.91;53.73;101262.72;5030892;27;124400;-66
2023/09/29 07:14:12;;;;;;;;;;;;;;;22.96;53.52;101260.44;5028965;28;124791;-66
2023/09/29 07:16:42;;;;;;;;;;;;;;;22.96;53.70;101257.72;5024887;28;114235;-66
2023/09/29 07:19:12;;;;;;;;;;;;;;;22.99;53.73;101265.56;5003539;28;113952;-66
2023/09/29 07:21:40;;;;;;;;;;;;;;;23.01;53.78;101258.16;5024516;28;124930;-66
2023/09/29 07:24:07;;;;;;;;;;;;;;;23.02;53.82;101259.91;5028095;28;124285;-66
2023/09/29 07:26:35;;;;;;;;;;;;;;;23.04;53.65;101257.94;5019984;28;114633;-66
2023/09/29 07:29:08;;;;;;;;;;;;;;;23.06;53.66;101272.16;5032115;28;114197;-66
2023/09/29 07:31:35;;;;;;;;;;;;;;;23.08;53.61;101270.16;5029375;28;124860;-66
2023/09/29 07:34:02;;;;;;;;;;;;;;;23.10;53.65;101276.28;5030400;28;124052;-66
2023/09/29 07:36:31;;;;;;;;;;;;;;;23.12;53.64;101277.00;5021921;28;114976;-66
2023/09/29 07:38:58;;;;;;;;;;;;;;;23.16;53.64;101282.13;5024146;27;114261;-66
2023/09/29 07:41:26;;;;;;;;;;;;;;;23.19;53.78;101281.81;5013273;28;124228;-66
2023/09/29 07:43:53;;;;;;;;;;;;;;;23.23;53.76;101277.88;5028497;28;124497;-66
2023/09/29 07:46:20;;;;;;;;;;;;;;;23.26;53.67;101272.16;5008540;28;114701;-66
2023/09/29 07:48:47;;;;;;;;;;;;;;;23.30;53.77;101281.69;5028921;28;113676;-66
2023/09/29 07:51:14;;;;;;;;;;;;;;;23.37;53.81;101274.72;5017183;28;124424;-66
2023/09/29 07:53:43;;;;;;;;;;;;;;;23.43;53.83;101284.13;5025400;28;123774;-66
2023/09/29 07:56:10;;;;;;;;;;;;;;;23.49;53.80;101287.13;5028546;28;115290;-66
2023/09/29 07:58:38;;;;;;;;;;;;;;;23.58;53.72;101287.25;5029043;28;114746;-66
2023/09/29 08:01:05;;;;;;;;;;;;;;;23.65;53.71;101288.38;5028674;28;124768;-66
2023/09/29 08:03:32;;;;;;;;;;;;;;;23.72;53.69;101292.22;5029003;27;125094;-66
2023/09/29 08:06:00;;;;;;;;;;;;;;;23.79;53.79;101285.28;5031406;28;114989;-66
2023/09/29 08:08:28;;;;;;;;;;;;;;;23.88;53.94;101295.25;5017471;28;113704;-66
2023/09/29 08:10:55;;;;;;;;;;;;;;;23.98;53.96;101288.94;5016916;28;124432;-66
2023/09/29 08:13:23;;;;;;;;;;;;;;;24.06;53.79;101280.94;5028686;28;124118;-66
2023/09/29 08:15:51;;;;;;;;;;;;;;;24.15;53.64;101282.78;5027617;28;114298;-66
2023/09/29 08:18:18;;;;;;;;;;;;;;;24.21;53.64;101286.75;5021722;28;113745;-66
2023/09/29 08:20:46;;;;;;;;;;;;;;;24.28;53.63;101291.44;5017850;28;125203;-66
2023/09/29 08:23:13;;;;;;;;;;;;;;;24.38;53.72;101290.53;5025274;27;124041;-66
2023/09/29 08:25:42;;;;;;;;;;;;;;;24.49;53.68;101301.19;5020752;28;114467;-66
2023/09/29 08:28:09;;;;;;;;;;;;;;;24.58;53.65;101292.19;5034474;27;113866;-66
2023/09/29 08:30:42;;;;;;;;;;;;;;;24.66;53.69;101295.00;5027316;27;125898;-66
2023/09/29 08:33:10;;;;;;;;;;;;;;;24.75;53.88;101292.38;5015165;28;124025;-66
2023/09/29 08:35:51;;;;;;;;;;;;;;;24.86;53.99;101305.72;5021587;27;114418;-66
2023/09/29 08:38:19;;;;;;;;;;;;;;;24.95;53.58;101298.56;5017240;27;113886;-66
2023/09/29 08:40:46;;;;;;;;;;;;;;;25.03;53.49;101306.75;5027349;28;125071;-66
2023/09/29 08:43:15;;;;;;;;;;;;;;;25.09;53.46;101310.72;5028115;28;124349;-66
2023/09/29 08:45:42;;;;;;;;;;;;;;;25.17;53.54;101308.13;5028682;28;115775;-66
2023/09/29 08:48:11;;;;;;;;;;;;;;;25.23;53.62;101307.53;5024604;27;115551;-66
2023/09/29 08:50:43;;;;;;;;;;;;;;;25.28;53.44;101310.63;5022785;28;124139;-66
2023/09/29 08:53:10;;;;;;;;;;;;;;;25.36;53.51;101313.41;5028936;28;124177;-66
2023/09/29 08:55:38;;;;;;;;;;;;;;;25.41;53.30;101321.06;5025016;28;114921;-66
2023/09/29 08:58:07;;;;;;;;;;;;;;;25.45;53.39;101326.06;5020430;28;113966;-66
2023/09/29 09:00:34;;;;;;;;;;;;;;;25.49;53.37;101323.88;5021037;28;124345;-66
2023/09/29 09:03:02;;;;;;;;;;;;;;;25.53;53.51;101321.72;5025520;28;123976;-66
2023/09/29 09:05:30;;;;;;;;;;;;;;;25.56;53.18;101324.97;5022529;28;115034;-66
2023/09/29 09:07:59;;;;;;;;;;;;;;;25.59;53.05;101331.94;5014400;28;114488;-66
2023/09/29 09:10:30;;;;;;;;;;;;;;;25.60;53.15;101336.38;5026961;28;124249;-66
2023/09/29 09:13:00;;;;;;;;;;;;;;;25.62;53.17;101328.94;5025349;28;124497;-66
2023/09/29 09:15:27;;;;;;;;;;;;;;;25.63;53.13;101330.63;5028105;28;115420;-66
2023/09/29 09:17:56;;;;;;;;;;;;;;;25.65;53.07;101334.03;5025919;28;114692;-66
2023/09/29 09:20:23;;;;;;;;;;;;;;;25.66;53.18;101335.75;5007182;28;125077;-66
2023/09/29 09:23:01;;;;;;;;;;;;;;;25.65;52.94;101342.16;5023261;27;124233;-66
2023/09/29 09:25:35;;;;;;;;;;;;;;;25.64;53.27;101343.19;5031151;27;114963;-66
2023/09/29 09:28:04;;;;;;;;;;;;;;;25.63;53.29;101344.19;5018282;28;113836;-66
2023/09/29 09:30:36;;;;;;;;;;;;;;;25.65;53.42;101350.31;5017742;28;123046;-66
2023/09/29 09:33:05;;;;;;;;;;;;;;;25.67;53.00;101353.72;5018794;27;125170;-66
2023/09/29 09:35:33;;;;;;;;;;;;;;;25.74;53.29;101354.78;5016545;27;115550;-66
2023/09/29 09:38:02;;;;;;;;;;;;;;;25.82;53.20;101357.59;5022480;27;114281;-67
2023/09/29 09:40:31;;;;;;;;;;;;;;;25.88;53.04;101360.66;5017093;27;125072;-66
2023/09/29 09:43:03;;;;;;;;;;;;;;;25.92;53.15;101356.66;5001618;28;124188;-66
2023/09/29 09:45:34;;;;;;;;;;;;;;;25.98;53.36;101367.75;5003040;28;114878;-67
2023/09/29 09:48:04;;;;;;;;;;;;;;;25.99;53.14;101363.16;5003622;28;113727;-66
2023/09/29 09:50:36;;;;;;;;;;;;;;;25.98;53.08;101372.34;4996157;28;124167;-66
2023/09/29 09:53:07;;;;;;;;;;;;;;;25.98;53.18;101366.91;4987660;28;123746;-66
2023/09/29 09:55:36;;;;;;;;;;;;;;;25.99;53.24;101364.03;5017456;27;115287;-66
2023/09/29 09:58:09;;;;;;;;;;;;;;;26.01;53.17;101363.88;5020186;27;113494;-66
2023/09/29 10:00:39;;;;;;;;;;;;;;;26.03;52.90;101372.69;5001455;28;124358;-66
2023/09/29 10:03:11;;;;;;;;;;;;;;;26.01;52.93;101381.03;5021108;27;126066;-66
2023/09/29 10:05:41;;;;;;;;;;;;;;;25.95;52.85;101394.34;5018566;27;114682;-67
2023/09/29 10:08:10;;;;;;;;;;;;;;;25.82;52.75;101394.72;5018558;27;114081;-66
2023/09/29 10:10:39;;;;;;;;;;;;;;;25.66;52.66;101406.28;5024762;27;122065;-67
2023/09/29 10:13:14;;;;;;;;;;;;;;;25.55;52.62;101410.06;5028147;27;124472;-66
2023/09/29 10:15:42;;;;;;;;;;;;;;;25.44;52.72;101397.56;5003033;28;114523;-66
2023/09/29 10:18:13;;;;;;;;;;;;;;;25.38;52.81;101403.59;5027852;27;113704;-66
2023/09/29 10:20:41;;;;;;;;;;;;;;;25.33;53.01;101400.50;5025311;27;124955;-66
2023/09/29 10:23:13;;;;;;;;;;;;;;;25.33;53.05;101395.06;5029689;27;124255;-66
2023/09/29 10:25:44;;;;;;;;;;;;;;;25.34;53.25;101395.94;5026215;27;115659;-66
2023/09/29 10:28:12;;;;;;;;;;;;;;;25.34;53.28;101402.22;5027009;27;114651;-66
2023/09/29 10:30:40;;;;;;;;;;;;;;;25.36;53.45;101405.63;5028434;27;124645;-67
2023/09/29 10:33:13;;;;;;;;;;;;;;;25.39;53.36;101399.03;5028849;27;124552;-67
2023/09/29 10:35:45;;;;;;;;;;;;;;;25.41;53.34;101397.88;5029285;27;114537;-67
2023/09/29 10:38:22;;;;;;;;;;;;;;;25.44;53.14;101404.84;5009581;28;112742;-67
2023/09/29 10:40:50;;;;;;;;;;;;;;;25.44;53.27;101408.41;5008026;28;124460;-66
2023/09/29 10:43:17;;;;;;;;;;;;;;;25.47;53.27;101406.41;5029704;27;124250;-66
2023/09/29 10:45:44;;;;;;;;;;;;;;;25.48;53.50;101402.69;5024034;27;114481;-66
2023/09/29 10:48:12;;;;;;;;;;;;;;;25.51;53.28;101407.81;5023800;27;113762;-66
2023/09/29 10:50:39;;;;;;;;;;;;;;;25.50;53.35;101408.81;5034740;27;123446;-66
2023/09/29 10:53:07;;;;;;;;;;;;;;;25.49;53.29;101421.53;5027620;27;124014;-67
2023/09/29 10:55:42;;;;;;;;;;;;;;;25.46;53.06;101421.81;5025250;27;114373;-67
2023/09/29 10:58:13;;;;;;;;;;;;;;;25.44;53.27;101419.25;5017321;28;114114;-66
2023/09/29 11:00:41;;;;;;;;;;;;;;;25.44;53.45;101424.69;5031287;27;126132;-66
2023/09/29 11:03:11;;;;;;;;;;;;;;;25.48;53.43;101429.81;5030665;27;124277;-66
2023/09/29 11:05:45;;;;;;;;;;;;;;;25.52;53.14;101425.78;5024135;27;114599;-67
2023/09/29 11:08:12;;;;;;;;;;;;;;;25.56;53.36;101427.19;5021941;27;113562;-67
2023/09/29 11:10:39;;;;;;;;;;;;;;;25.58;53.56;101426.03;5031225;27;124253;-66
2023/09/29 11:13:15;;;;;;;;;;;;;;;25.59;53.30;101443.16;5026541;27;123973;-66
2023/09/29 11:15:43;;;;;;;;;;;;;;;25.57;53.15;101439.75;5040082;27;116254;-66
2023/09/29 11:18:10;;;;;;;;;;;;;;;25.54;53.35;101440.03;5026713;27;114438;-66
2023/09/29 11:20:37;;;;;;;;;;;;;;;25.48;52.97;101436.09;5024519;27;124330;-66
2023/09/29 11:23:14;;;;;;;;;;;;;;;25.43;53.12;101444.69;5024725;28;124347;-67
2023/09/29 11:25:48;;;;;;;;;;;;;;;25.41;53.14;101446.69;5026304;27;114988;-66
2023/09/29 11:28:16;;;;;;;;;;;;;;;25.37;53.04;101456.16;5025475;27;114053;-67
2023/09/29 11:30:43;;;;;;;;;;;;;;;25.36;53.33;101449.00;5017233;28;124419;-67
2023/09/29 11:33:11;;;;;;;;;;;;;;;25.33;53.12;101452.00;5027957;27;124435;-67
2023/09/29 11:35:41;;;;;;;;;;;;;;;25.31;53.07;101443.19;4987586;28;113925;-66
2023/09/29 11:38:28;;;;;;;;;;;;;;;25.32;53.30;101444.91;5012330;27;112853;-67
2023/09/29 11:40:55;;;;;;;;;;;;;;;25.35;53.18;101441.88;5017348;27;124369;-66
2023/09/29 11:43:22;;;;;;;;;;;;;;;25.41;53.51;101445.81;5019082;27;124595;-67
2023/09/29 11:45:49;;;;;;;;;;;;;;;25.48;53.43;101446.09;5025612;27;114947;-67
2023/09/29 11:48:17;;;;;;;;;;;;;;;25.59;53.73;101449.44;5005603;28;112940;-67
2023/09/29 11:50:44;;;;;;;;;;;;;;;25.68;53.61;101442.25;5027332;28;124202;-67
2023/09/29 11:53:11;;;;;;;;;;;;;;;25.74;53.28;101446.22;5021141;27;125340;-67
2023/09/29 11:55:39;;;;;;;;;;;;;;;25.77;53.50;101441.31;5029685;28;113129;-67
2023/09/29 11:58:07;;;;;;;;;;;;;;;25.78;53.50;101443.00;5029277;28;113912;-66
2023/09/29 12:00:36;;;;;;;;;;;;;;;25.81;53.51;101442.72;5009247;27;124033;-67
2023/09/29 12:03:05;;;;;;;;;;;;;;;25.88;53.35;101452.94;5016983;27;123840;-67
2023/09/29 12:05:36;;;;;;;;;;;;;;;25.94;53.29;101447.81;5029786;27;115291;-67
2023/09/29 12:08:08;;;;;;;;;;;;;;;26.02;53.33;101460.59;5030305;28;96895;-67
2023/09/29 12:10:35;;;;;;;;;;;;;;;26.07;53.34;101457.41;5003665;28;124409;-67
2023/09/29 12:13:04;;;;;;;;;;;;;;;26.11;53.33;101454.22;5020290;27;125258;-67
2023/09/29 12:15:32;;;;;;;;;;;;;;;26.14;53.32;101450.34;5024901;27;114582;-67
2023/09/29 12:18:00;;;;;;;;;;;;;;;26.21;53.18;101454.16;5019530;27;113776;-67
2023/09/29 12:20:28;;;;;;;;;;;;;;;26.27;53.22;101447.22;5029165;27;125085;-68
2023/09/29 12:22:57;;;;;;;;;;;;;;;26.34;53.29;101464.59;5023826;28;123650;-67
2023/09/29 12:25:24;;;;;;;;;;;;;;;26.41;53.42;101476.56;5025809;27;114630;-67
2023/09/29 12:27:51;;;;;;;;;;;;;;;26.42;53.11;101478.25;5019133;28;113577;-67
2023/09/29 12:30:21;;;;;;;;;;;;;;;26.38;52.92;101487.72;5019474;28;124665;-67
2023/09/29 12:32:48;;;;;;;;;;;;;;;26.28;52.64;101495.13;5026527;28;126135;-67
2023/09/29 12:35:15;;;;;;;;;;;;;;;26.18;52.74;101487.91;5006958;28;114033;-67
2023/09/29 12:37:43;;;;;;;;;;;;;;;26.12;52.72;101493.94;5026073;28;113909;-67